Time;durP1;ratioP1;P1;durP2;ratioP2;P2;SDS_P1;SDS_P2;PMS_P1;PMS_P2;Temp;Humidity;BMP_temperature;BMP_pressure;BME280_temperature;BME280_humidity;BME280_pressure;Samples;Min_cycle;Max_cycle;Signal;HPM_P1;HPM_P2
2021/10/26 00:07:55;;;;;;;20.05;8.80;;;1.60;85.00;;;;;;6217860;23;20332;-92
2021/10/26 00:14:25;;;;;;;24.70;10.13;;;1.60;84.60;;;;;;6196038;23;20303;-92
2021/10/26 00:16:42;;;;;;;16.05;8.93;;;1.60;85.20;;;;;;6196151;23;20007;-92
2021/10/26 00:22:41;;;;;;;14.45;7.70;;;1.60;85.60;;;;;;6217567;23;20005;-92
2021/10/26 00:25:46;;;;;;;16.20;7.95;;;1.60;85.40;;;;;;6191306;23;20071;-92
2021/10/26 00:28:29;;;;;;;19.42;7.93;;;1.50;85.20;;;;;;6189844;23;20423;-92
2021/10/26 00:31:15;;;;;;;14.93;7.60;;;1.60;85.40;;;;;;6218002;23;19996;-93
2021/10/26 00:34:05;;;;;;;14.25;6.63;;;1.50;85.40;;;;;;6217383;23;19992;-92
2021/10/26 00:36:53;;;;;;;17.75;7.35;;;1.60;86.10;;;;;;6190250;23;20426;-92
2021/10/26 00:42:30;;;;;;;15.00;6.47;;;1.50;85.80;;;;;;6217883;23;20005;-92
2021/10/26 00:48:12;;;;;;;13.90;6.00;;;1.50;85.70;;;;;;6205868;23;19993;-92
2021/10/26 00:50:48;;;;;;;10.93;5.80;;;1.50;85.70;;;;;;6191373;23;20024;-92
2021/10/26 00:53:28;;;;;;;11.50;5.20;;;1.50;85.80;;;;;;6190303;23;20009;-92
2021/10/26 00:56:04;;;;;;;10.10;5.28;;;1.50;86.10;;;;;;6191070;23;19997;-92
2021/10/26 00:58:41;;;;;;;14.27;5.38;;;1.50;85.70;;;;;;6190973;23;19996;-92
2021/10/26 01:01:30;;;;;;;8.20;4.35;;;1.50;85.70;;;;;;6191046;23;20367;-92
2021/10/26 01:04:05;;;;;;;14.68;5.65;;;1.50;85.80;;;;;;6191270;23;20398;-93
2021/10/26 01:06:41;;;;;;;14.25;8.00;;;1.50;85.80;;;;;;6191073;23;20087;-92
2021/10/26 01:09:22;;;;;;;11.57;5.93;;;1.50;86.20;;;;;;6191099;23;20043;-93
2021/10/26 01:12:09;;;;;;;12.93;5.53;;;1.50;86.20;;;;;;6191502;23;20051;-92
2021/10/26 01:14:50;;;;;;;;;;;;;;;;;;;;;
2021/10/26 01:17:23;;;;;;;7.78;4.03;;;1.50;86.20;;;;;;6217101;23;20075;-93
2021/10/26 01:19:52;;;;;;;7.35;4.60;;;1.50;86.20;;;;;;6190546;23;20408;-93
2021/10/26 01:22:39;;;;;;;;;;;;;;;;;;;;;
2021/10/26 01:25:12;;;;;;;10.45;4.78;;;1.40;86.20;;;;;;6219438;23;20092;-93
2021/10/26 01:27:53;;;;;;;8.20;4.40;;;1.50;86.30;;;;;;6192891;23;20035;-92
2021/10/26 01:30:33;;;;;;;12.27;4.97;;;1.40;86.20;;;;;;6192715;23;20000;-92
2021/10/26 01:33:06;;;;;;;12.63;4.50;;;1.40;86.20;;;;;;6192598;23;20000;-92
2021/10/26 01:35:35;;;;;;;10.10;4.30;;;1.40;86.30;;;;;;6193358;23;20440;-92
2021/10/26 01:38:03;;;;;;;10.48;4.85;;;1.40;86.30;;;;;;6192915;23;20023;-91
2021/10/26 01:40:31;;;;;;;10.20;4.38;;;1.40;86.40;;;;;;6192587;23;20075;-92
2021/10/26 01:42:59;;;;;;;7.93;4.07;;;1.40;86.50;;;;;;6192942;23;20039;-92
2021/10/26 01:45:25;;;;;;;8.82;5.07;;;1.40;86.50;;;;;;6193087;23;19997;-91
2021/10/26 01:47:51;;;;;;;9.68;3.70;;;1.30;86.60;;;;;;6193223;23;20010;-92
2021/10/26 01:50:22;;;;;;;10.48;5.45;;;1.30;86.60;;;;;;6211356;23;20038;-91
2021/10/26 01:52:50;;;;;;;9.13;4.65;;;1.30;86.80;;;;;;6219128;23;19989;-91
2021/10/26 01:55:20;;;;;;;7.18;4.10;;;1.30;87.10;;;;;;6219135;23;19989;-92
2021/10/26 01:57:48;;;;;;;10.27;3.72;;;1.30;87.20;;;;;;6216920;23;20076;-92
2021/10/26 02:00:18;;;;;;;12.65;5.18;;;1.30;87.30;;;;;;6192725;23;20005;-92
2021/10/26 02:02:48;;;;;;;8.38;3.55;;;1.30;87.20;;;;;;6192507;23;20008;-91
2021/10/26 02:05:18;;;;;;;11.05;4.07;;;1.30;87.30;;;;;;6203423;23;20005;-91
2021/10/26 02:07:49;;;;;;;10.18;4.93;;;1.30;87.30;;;;;;6219996;23;20000;-90
2021/10/26 02:10:16;;;;;;;8.77;4.85;;;1.30;87.20;;;;;;6220129;23;19995;-91
2021/10/26 02:12:45;;;;;;;9.13;4.13;;;1.30;87.40;;;;;;6218110;23;20000;-92
2021/10/26 02:15:16;;;;;;;10.18;5.30;;;1.20;87.30;;;;;;6206327;23;20001;-92
2021/10/26 02:17:45;;;;;;;9.18;4.57;;;1.20;87.40;;;;;;6220920;23;19993;-90
2021/10/26 02:20:16;;;;;;;9.57;5.53;;;1.20;87.50;;;;;;6192130;23;20087;-93
2021/10/26 02:22:53;;;;;;;15.13;5.80;;;1.20;87.50;;;;;;6192810;23;20416;-92
2021/10/26 02:25:32;;;;;;;14.13;6.85;;;1.20;87.70;;;;;;6192979;23;19999;-92
2021/10/26 02:27:58;;;;;;;13.43;6.35;;;1.20;88.00;;;;;;6192392;23;19992;-91
2021/10/26 02:30:34;;;;;;;12.48;6.50;;;1.10;88.00;;;;;;6191864;23;20091;-92
2021/10/26 02:33:03;;;;;;;11.77;5.38;;;1.20;88.00;;;;;;6191783;23;19993;-92
2021/10/26 02:35:37;;;;;;;15.07;6.45;;;1.10;88.00;;;;;;6192623;23;19997;-92
2021/10/26 02:38:04;;;;;;;12.93;6.82;;;1.20;88.20;;;;;;6218904;23;20060;-92
2021/10/26 02:40:35;;;;;;;16.55;5.93;;;1.10;88.30;;;;;;6218739;23;20426;-91
2021/10/26 02:43:08;;;;;;;11.82;5.47;;;1.10;88.30;;;;;;6192364;23;20344;-91
2021/10/26 02:45:37;;;;;;;14.23;7.00;;;1.10;88.40;;;;;;6193337;23;20053;-92
2021/10/26 02:48:03;;;;;;;16.13;6.82;;;1.20;88.20;;;;;;6192627;23;20233;-92
2021/10/26 02:50:49;;;;;;;12.95;6.63;;;1.10;88.10;;;;;;6192556;23;20000;-92
2021/10/26 02:53:16;;;;;;;16.35;6.20;;;1.10;88.30;;;;;;6191840;23;20009;-92
2021/10/26 02:55:51;;;;;;;11.95;6.40;;;1.10;88.40;;;;;;6192696;23;20023;-92
2021/10/26 02:58:27;;;;;;;16.67;7.03;;;1.10;88.40;;;;;;6193150;23;20008;-92
2021/10/26 03:00:53;;;;;;;16.83;7.80;;;1.10;88.50;;;;;;6192639;23;20009;-92
2021/10/26 03:03:31;;;;;;;12.02;5.57;;;1.10;88.80;;;;;;6192447;23;20083;-92
2021/10/26 03:05:59;;;;;;;12.27;6.03;;;1.10;88.70;;;;;;6191973;23;19997;-92
2021/10/26 03:08:30;;;;;;;17.08;6.43;;;1.10;88.70;;;;;;6191454;23;19998;-92
2021/10/26 03:11:03;;;;;;;18.80;7.60;;;1.10;88.60;;;;;;6192062;23;20001;-92
2021/10/26 03:13:29;;;;;;;16.88;7.05;;;1.10;88.90;;;;;;6191908;23;20032;-93
2021/10/26 03:15:54;;;;;;;12.60;5.95;;;1.10;88.80;;;;;;6219069;23;20415;-92
2021/10/26 03:18:31;;;;;;;20.15;7.25;;;1.00;88.80;;;;;;6192653;23;20000;-93
2021/10/26 03:20:58;;;;;;;14.90;6.20;;;1.00;88.90;;;;;;6192554;23;20312;-94
2021/10/26 03:23:25;;;;;;;15.13;7.30;;;1.10;89.00;;;;;;6192427;23;20045;-93
2021/10/26 03:26:03;;;;;;;10.48;5.85;;;1.00;89.00;;;;;;6192313;23;20047;-94
2021/10/26 03:28:37;;;;;;;9.60;5.30;;;1.00;89.00;;;;;;6192360;23;20000;-94
2021/10/26 03:31:05;;;;;;;14.98;5.93;;;1.00;88.90;;;;;;6218387;23;19993;-93
2021/10/26 03:33:31;;;;;;;18.52;6.47;;;1.00;89.00;;;;;;6192544;23;20474;-93
2021/10/26 03:36:04;;;;;;;10.02;6.38;;;1.00;89.20;;;;;;6192722;23;19997;-93
2021/10/26 03:38:34;;;;;;;16.90;5.45;;;1.00;89.20;;;;;;6218514;23;19997;-93
2021/10/26 03:41:03;;;;;;;13.77;6.03;;;1.00;89.20;;;;;;6192286;23;20007;-93
2021/10/26 03:43:31;;;;;;;11.25;4.85;;;1.00;89.20;;;;;;6191226;23;20036;-94
2021/10/26 03:46:03;;;;;;;11.85;4.80;;;0.90;89.30;;;;;;6192432;23;20001;-94
2021/10/26 03:48:32;;;;;;;15.82;7.30;;;0.90;89.40;;;;;;6192537;23;19993;-93
2021/10/26 03:51:17;;;;;;;20.10;7.07;;;0.90;89.50;;;;;;6192023;23;20420;-94
2021/10/26 03:53:48;;;;;;;14.98;7.57;;;0.90;89.70;;;;;;6191521;23;20312;-93
2021/10/26 03:56:26;;;;;;;13.70;6.65;;;0.90;89.60;;;;;;6218406;23;20395;-93
2021/10/26 03:59:10;;;;;;;;;;;;;;;;;;;;;
2021/10/26 04:01:39;;;;;;;12.82;6.43;;;0.90;90.10;;;;;;6218845;23;20515;-93
2021/10/26 04:04:05;;;;;;;16.10;6.60;;;0.90;90.20;;;;;;6191974;23;19996;-91
2021/10/26 04:06:33;;;;;;;12.60;6.10;;;0.90;90.00;;;;;;6191869;23;20419;-93
2021/10/26 04:09:09;;;;;;;8.88;4.40;;;0.90;90.00;;;;;;6192582;23;20004;-92
2021/10/26 04:11:53;;;;;;;10.80;5.70;;;0.90;90.20;;;;;;6192005;23;19997;-91
2021/10/26 04:14:27;;;;;;;9.20;5.75;;;0.90;90.00;;;;;;6191823;23;20408;-91
2021/10/26 04:16:56;;;;;;;10.25;5.63;;;0.90;90.20;;;;;;6191074;23;19997;-92
2021/10/26 04:19:27;;;;;;;12.00;5.65;;;0.80;90.10;;;;;;6191151;23;19996;-91
2021/10/26 04:21:57;;;;;;;10.43;4.47;;;0.80;90.20;;;;;;6192016;23;20013;-92
2021/10/26 04:24:23;;;;;;;10.60;4.28;;;0.80;90.20;;;;;;6218235;23;20075;-93
2021/10/26 04:27:16;;;;;;;11.10;5.07;;;0.80;90.30;;;;;;6191409;23;20051;-92
2021/10/26 04:29:48;;;;;;;10.35;4.60;;;0.80;90.30;;;;;;6193054;23;20420;-93
2021/10/26 04:32:19;;;;;;;7.15;4.60;;;0.90;90.30;;;;;;6191574;23;20046;-93
2021/10/26 04:35:10;;;;;;;12.52;5.47;;;0.80;90.40;;;;;;6192735;23;20000;-93
2021/10/26 04:37:39;;;;;;;7.85;4.82;;;0.80;90.50;;;;;;6193557;23;20003;-93
2021/10/26 04:40:08;;;;;;;12.30;4.85;;;0.90;90.50;;;;;;6217971;23;19997;-93
2021/10/26 04:42:34;;;;;;;10.52;4.05;;;0.90;90.60;;;;;;6192983;23;20000;-93
2021/10/26 04:45:00;;;;;;;6.10;4.20;;;0.90;90.50;;;;;;6191664;23;19992;-92
2021/10/26 04:47:37;;;;;;;12.55;4.38;;;1.00;90.70;;;;;;6191543;23;20000;-94
2021/10/26 04:50:07;;;;;;;10.20;4.72;;;1.10;90.70;;;;;;6191376;23;20138;-94
2021/10/26 04:52:38;;;;;;;11.05;5.63;;;1.20;90.60;;;;;;6191305;23;20308;-93
2021/10/26 04:55:11;;;;;;;11.88;5.63;;;1.20;90.60;;;;;;6191159;23;20012;-95
2021/10/26 04:57:51;;;;;;;12.75;7.28;;;1.30;90.60;;;;;;6191231;23;20051;-94
2021/10/26 05:00:27;;;;;;;10.35;6.03;;;1.30;90.70;;;;;;6191843;23;20000;-94
2021/10/26 05:02:58;;;;;;;9.68;6.15;;;1.40;90.60;;;;;;6191436;23;20008;-92
2021/10/26 05:09:37;;;;;;;;;;;;;;;;;;;;;
2021/10/26 05:12:42;;;;;;;;;;;;;;;;;;;;;
2021/10/26 05:15:16;;;;;;;10.77;5.40;;;1.70;90.30;;;;;;6042170;23;20087;-94
2021/10/26 05:17:53;;;;;;;10.73;5.65;;;1.80;90.30;;;;;;6126083;23;20013;-93
2021/10/26 05:23:55;;;;;;;12.23;6.75;;;2.10;90.10;;;;;;6125287;23;20006;-94
2021/10/26 05:30:37;;;;;;;11.02;7.47;;;2.30;89.80;;;;;;6101747;23;20496;-92
2021/10/26 05:34:02;;;;;;;17.38;6.85;;;2.50;89.60;;;;;;6145284;23;19993;-93
2021/10/26 05:37:19;;;;;;;13.52;5.85;;;2.70;89.40;;;;;;6160406;23;19993;-93
2021/10/26 05:39:57;;;;;;;10.48;5.63;;;2.90;88.70;;;;;;6187366;23;20439;-91
2021/10/26 05:42:32;;;;;;;;;;;;;;;;;;;;;
2021/10/26 05:45:06;;;;;;;11.38;4.78;;;3.20;88.10;;;;;;6218409;23;20059;-93
2021/10/26 05:47:55;;;;;;;17.50;5.45;;;3.40;88.00;;;;;;6189748;23;20011;-93
2021/10/26 05:50:30;;;;;;;12.80;5.00;;;3.50;87.70;;;;;;6217566;23;20050;-93
2021/10/26 05:53:07;;;;;;;11.00;4.60;;;3.70;87.10;;;;;;6191054;23;20046;-92
2021/10/26 05:55:43;;;;;;;;;;;;;;;;;;;;;
2021/10/26 05:58:17;;;;;;;8.88;5.38;;;4.10;86.20;;;;;;6218222;23;20071;-94
2021/10/26 06:00:48;;;;;;;7.03;4.32;;;4.20;85.80;;;;;;6191389;23;20004;-92
2021/10/26 06:03:16;;;;;;;9.40;4.75;;;4.30;85.50;;;;;;6191736;23;19997;-92
2021/10/26 06:05:42;;;;;;;7.63;5.22;;;4.50;85.20;;;;;;6192255;23;20335;-92
2021/10/26 06:08:15;;;;;;;11.55;4.22;;;4.60;84.70;;;;;;6191948;23;20000;-93
2021/10/26 06:11:01;;;;;;;;;;;;;;;;;;;;;
2021/10/26 06:14:19;;;;;;;12.25;6.82;;;4.90;84.00;;;;;;6219070;23;20083;-93
2021/10/26 06:16:48;;;;;;;13.10;6.45;;;5.00;82.90;;;;;;6192956;23;19993;-94
2021/10/26 06:19:14;;;;;;;10.63;4.78;;;5.10;82.60;;;;;;6192357;23;19996;-94
2021/10/26 06:21:48;;;;;;;15.52;7.20;;;5.20;82.30;;;;;;6194444;23;20416;-93
2021/10/26 06:25:15;;;;;;;15.05;7.35;;;5.30;81.70;;;;;;6197321;23;20057;-96
2021/10/26 06:27:56;;;;;;;13.45;6.18;;;5.40;81.20;;;;;;6160124;23;20049;-96
2021/10/26 06:30:55;;;;;;;12.63;8.13;;;5.50;81.00;;;;;;6196445;23;20001;-94
2021/10/26 06:33:47;;;;;;;9.13;5.40;;;5.60;80.70;;;;;;6191346;23;20001;-95
2021/10/26 06:36:39;;;;;;;14.13;7.05;;;5.70;80.30;;;;;;6193869;23;20001;-95
2021/10/26 06:39:22;;;;;;;;;;;;;;;;;;;;;
2021/10/26 06:42:18;;;;;;;8.60;5.05;;;6.00;79.60;;;;;;6178074;23;20025;-93
2021/10/26 06:44:55;;;;;;;7.53;5.05;;;6.10;78.70;;;;;;6166036;23;20061;-96
2021/10/26 06:47:34;;;;;;;9.05;4.97;;;6.20;77.80;;;;;;6156143;23;20032;-93
2021/10/26 06:53:49;;;;;;;;;;;;;;;;;;;;;
2021/10/26 07:04:02;;;;;;;7.63;4.27;;;6.90;76.40;;;;;;6161242;23;20042;-94
2021/10/26 07:06:55;;;;;;;11.65;6.18;;;7.00;75.40;;;;;;6163365;23;20006;-95
2021/10/26 07:10:03;;;;;;;;;;;;;;;;;;;;;
2021/10/26 07:13:22;;;;;;;;;;;;;;;;;;;;;
2021/10/26 07:20:11;;;;;;;;;;;;;;;;;;;;;
2021/10/26 08:15:50;;;;;;;;;;;;;;;;;;;;;
2021/10/26 08:19:11;;;;;;;;;;;;;;;;;;;;;
2021/10/26 08:26:00;;;;;;;;;;;;;;;;;;;;;
2021/10/26 09:23:41;;;;;;;5.85;4.53;;;9.60;61.20;;;;;;6295354;22;20042;-96
2021/10/26 11:54:14;;;;;;;;;;;;;;;;;;;;;
2021/10/26 12:16:03;;;;;;;;;;;;;;;;;;;;;
2021/10/26 12:22:47;;;;;;;;;;;;;;;;;;;;;
2021/10/26 15:34:49;;;;;;;;;;;;;;;;;;;;;
2021/10/26 15:37:56;;;;;;;;;;;;;;;;;;;;;
2021/10/26 15:41:15;;;;;;;6.50;4.38;;;7.70;58.90;;;;;;6157137;23;20053;-89
2021/10/26 15:43:54;;;;;;;12.93;5.00;;;7.60;58.90;;;;;;6162429;23;20012;-89
2021/10/26 15:46:24;;;;;;;7.03;4.05;;;7.50;58.80;;;;;;6282907;22;19995;-89
2021/10/26 15:49:39;;;;;;;6.63;4.05;;;7.40;59.00;;;;;;6282331;22;19999;-91
2021/10/26 15:55:38;;;;;;;7.63;4.07;;;7.40;59.50;;;;;;6282516;22;19999;-89
2021/10/26 15:58:25;;;;;;;6.13;4.45;;;7.30;59.50;;;;;;6282132;22;20002;-89
2021/10/26 16:04:41;;;;;;;8.00;4.78;;;7.20;59.80;;;;;;6311207;22;19991;-88
2021/10/26 16:07:47;;;;;;;8.50;5.18;;;7.10;60.30;;;;;;6274665;22;20033;-89
2021/10/26 16:10:22;;;;;;;7.15;4.55;;;7.10;60.30;;;;;;6280995;22;20007;-89
2021/10/26 16:12:54;;;;;;;9.13;5.15;;;7.00;60.20;;;;;;6282082;22;20407;-88
2021/10/26 16:15:23;;;;;;;13.98;4.50;;;7.00;60.30;;;;;;6282850;22;20011;-89
2021/10/26 16:17:50;;;;;;;10.18;4.57;;;7.00;60.50;;;;;;6282338;22;20403;-89
2021/10/26 16:20:16;;;;;;;12.95;5.28;;;6.90;60.60;;;;;;6282138;22;20049;-89
2021/10/26 16:22:45;;;;;;;9.93;5.03;;;6.90;60.90;;;;;;6282306;22;20034;-89
2021/10/26 16:25:15;;;;;;;8.30;3.92;;;6.80;61.10;;;;;;6282132;22;20002;-89
2021/10/26 16:27:41;;;;;;;7.38;4.20;;;6.80;61.10;;;;;;6282655;22;20003;-89
2021/10/26 16:30:19;;;;;;;10.00;4.35;;;6.70;61.10;;;;;;6282288;22;20090;-89
2021/10/26 16:32:52;;;;;;;9.30;4.43;;;6.70;61.40;;;;;;6282672;22;19998;-89
2021/10/26 16:35:26;;;;;;;11.13;4.95;;;6.70;61.70;;;;;;6282057;22;20074;-89
2021/10/26 16:37:52;;;;;;;10.77;5.00;;;6.70;61.80;;;;;;6281809;22;19995;-88
2021/10/26 16:40:19;;;;;;;12.20;5.90;;;6.60;61.80;;;;;;6281590;22;20006;-89
2021/10/26 16:48:06;;;;;;;13.90;4.85;;;6.60;62.10;;;;;;6310108;22;20084;-89
2021/10/26 16:50:35;;;;;;;12.27;5.85;;;6.60;62.10;;;;;;6282205;22;20006;-89
2021/10/26 16:53:08;;;;;;;7.53;3.85;;;6.50;62.20;;;;;;6280738;22;20074;-89
2021/10/26 16:55:38;;;;;;;9.27;5.10;;;6.50;62.10;;;;;;6281845;22;20086;-87
2021/10/26 16:58:08;;;;;;;5.45;4.25;;;6.50;62.50;;;;;;6282259;22;19999;-89
2021/10/26 17:00:39;;;;;;;9.02;4.22;;;6.50;62.60;;;;;;6281973;22;20055;-89
2021/10/26 17:03:07;;;;;;;8.00;3.92;;;6.40;62.50;;;;;;6282640;22;19996;-89
2021/10/26 17:05:33;;;;;;;6.78;4.22;;;6.40;62.60;;;;;;6281586;22;20441;-89
2021/10/26 17:08:01;;;;;;;9.68;3.17;;;6.40;62.60;;;;;;6281953;22;20003;-88
2021/10/26 17:10:27;;;;;;;8.68;4.68;;;6.30;62.70;;;;;;6308960;22;19995;-89
2021/10/26 17:12:53;;;;;;;6.05;3.80;;;6.30;62.80;;;;;;6281527;22;20078;-88
2021/10/26 17:15:24;;;;;;;7.60;4.35;;;6.30;63.20;;;;;;6281865;22;20018;-89
2021/10/26 17:17:54;;;;;;;11.05;5.20;;;6.20;63.10;;;;;;6258129;22;20003;-89
2021/10/26 17:20:19;;;;;;;5.72;3.83;;;6.20;63.10;;;;;;6309253;22;20306;-89
2021/10/26 17:22:45;;;;;;;10.73;4.45;;;6.20;63.30;;;;;;6281818;22;19999;-89
2021/10/26 17:25:12;;;;;;;7.00;3.55;;;6.20;63.40;;;;;;6281358;22;20079;-88
2021/10/26 17:27:41;;;;;;;5.28;4.00;;;6.10;63.50;;;;;;6282092;22;20093;-89
2021/10/26 17:30:08;;;;;;;7.53;4.30;;;6.10;63.50;;;;;;6308753;22;20090;-89
2021/10/26 17:32:36;;;;;;;8.50;4.38;;;6.10;63.60;;;;;;6281472;22;20023;-89
2021/10/26 17:35:03;;;;;;;14.77;5.53;;;6.10;63.70;;;;;;6281565;22;19992;-89
2021/10/26 17:37:36;;;;;;;6.15;3.85;;;6.10;63.80;;;;;;6281722;22;20005;-90
2021/10/26 17:40:14;;;;;;;6.97;3.58;;;6.00;63.70;;;;;;6281562;22;20007;-87
2021/10/26 17:42:43;;;;;;;6.10;4.20;;;6.00;63.90;;;;;;6282205;22;20409;-89
2021/10/26 17:45:14;;;;;;;5.60;4.15;;;6.00;63.90;;;;;;6281525;22;19999;-88
2021/10/26 17:47:40;;;;;;;7.78;3.20;;;5.90;64.10;;;;;;6281838;22;20044;-89
2021/10/26 17:50:13;;;;;;;6.07;2.90;;;5.90;64.00;;;;;;6281546;22;20438;-89
2021/10/26 17:52:41;;;;;;;5.85;4.07;;;5.90;64.60;;;;;;6282735;22;20001;-90
2021/10/26 17:55:09;;;;;;;5.43;3.17;;;5.90;64.00;;;;;;6251364;22;20023;-90
2021/10/26 17:57:35;;;;;;;4.50;2.90;;;5.90;64.20;;;;;;6251541;22;19999;-89
2021/10/26 18:00:05;;;;;;;5.97;3.35;;;5.90;64.20;;;;;;6250929;22;19999;-90
2021/10/26 18:05:27;;;;;;;4.03;2.80;;;5.90;64.10;;;;;;6245718;22;20003;-89
2021/10/26 18:07:52;;;;;;;6.80;2.70;;;5.90;64.00;;;;;;6252433;22;20046;-89
2021/10/26 18:10:18;;;;;;;6.22;3.22;;;5.80;64.00;;;;;;6252607;22;20004;-89
2021/10/26 18:12:46;;;;;;;8.07;3.50;;;5.80;64.00;;;;;;6253090;22;20102;-89
2021/10/26 18:15:14;;;;;;;5.68;3.05;;;5.80;64.10;;;;;;6252287;22;20315;-89
2021/10/26 18:17:43;;;;;;;4.88;3.13;;;5.80;64.10;;;;;;6279763;22;20014;-89
2021/10/26 18:20:10;;;;;;;5.68;3.42;;;5.80;64.20;;;;;;6252236;22;20027;-89
2021/10/26 18:23:03;;;;;;;6.50;2.95;;;5.70;64.20;;;;;;6252286;22;20491;-88
2021/10/26 18:25:29;;;;;;;5.47;3.58;;;5.70;64.20;;;;;;6252263;22;19992;-89
2021/10/26 18:28:04;;;;;;;5.65;3.15;;;5.70;64.20;;;;;;6252900;22;20406;-88
2021/10/26 18:30:30;;;;;;;6.90;3.22;;;5.60;64.20;;;;;;6252571;22;20098;-89
2021/10/26 18:32:56;;;;;;;4.38;2.90;;;5.60;64.20;;;;;;6253024;22;20041;-89
2021/10/26 18:35:22;;;;;;;4.50;2.97;;;5.60;64.30;;;;;;6251917;22;20082;-89
2021/10/26 18:37:48;;;;;;;6.40;3.08;;;5.60;64.40;;;;;;6253116;22;20082;-88
2021/10/26 18:40:19;;;;;;;3.80;3.25;;;5.60;64.40;;;;;;6252066;22;20000;-88
2021/10/26 18:42:50;;;;;;;5.28;3.90;;;5.50;64.40;;;;;;6252868;22;20006;-89
2021/10/26 18:47:45;;;;;;;5.53;2.50;;;5.50;64.30;;;;;;6279802;22;20022;-89
2021/10/26 18:50:14;;;;;;;5.07;2.65;;;5.50;64.30;;;;;;6252679;22;20015;-89
2021/10/26 18:52:41;;;;;;;5.45;2.45;;;5.50;64.30;;;;;;6251964;22;19995;-89
2021/10/26 18:55:13;;;;;;;9.18;3.53;;;5.40;64.30;;;;;;6251937;22;20000;-88
2021/10/26 18:57:43;;;;;;;5.32;2.10;;;5.40;64.40;;;;;;6253007;22;20007;-89
2021/10/26 19:00:13;;;;;;;6.07;3.33;;;5.40;64.40;;;;;;6251984;22;20054;-89
2021/10/26 19:02:39;;;;;;;8.90;3.58;;;5.30;64.40;;;;;;6251740;22;20022;-88
2021/10/26 19:05:09;;;;;;;5.82;2.83;;;5.30;64.50;;;;;;6252610;22;19996;-89
2021/10/26 19:07:35;;;;;;;5.90;3.00;;;5.30;64.60;;;;;;6252652;22;20027;-88
2021/10/26 19:10:01;;;;;;;5.85;3.20;;;5.20;64.70;;;;;;6251604;22;20006;-89
2021/10/26 19:12:27;;;;;;;4.95;2.33;;;5.20;64.70;;;;;;6278906;22;20106;-88
2021/10/26 19:14:54;;;;;;;5.72;3.22;;;5.20;64.80;;;;;;6251554;22;20035;-89
2021/10/26 19:17:21;;;;;;;10.32;4.72;;;5.10;64.80;;;;;;6279387;22;19992;-89
2021/10/26 19:19:49;;;;;;;6.20;3.05;;;5.10;64.90;;;;;;6251898;22;20056;-88
2021/10/26 19:22:17;;;;;;;7.85;4.38;;;5.00;64.90;;;;;;6251574;22;20000;-89
2021/10/26 19:24:47;;;;;;;10.07;4.95;;;5.00;65.10;;;;;;6252378;22;20399;-89
2021/10/26 19:27:14;;;;;;;6.40;3.53;;;5.00;65.20;;;;;;6251629;22;19999;-89
2021/10/26 19:29:40;;;;;;;5.57;2.92;;;5.00;65.30;;;;;;6252770;22;20280;-89
2021/10/26 19:32:06;;;;;;;4.78;3.30;;;4.90;65.30;;;;;;6251638;22;20002;-89
2021/10/26 19:34:32;;;;;;;5.80;3.17;;;4.90;65.40;;;;;;6251787;22;20491;-87
2021/10/26 19:37:01;;;;;;;9.93;4.18;;;4.80;65.50;;;;;;6251730;22;20004;-89
2021/10/26 19:39:29;;;;;;;4.72;3.28;;;4.80;65.60;;;;;;6251564;22;19991;-89
2021/10/26 19:41:55;;;;;;;6.70;3.33;;;4.70;65.70;;;;;;6251409;22;20065;-89
2021/10/26 19:44:22;;;;;;;7.93;3.60;;;4.70;65.90;;;;;;6251656;22;20352;-89
2021/10/26 19:46:50;;;;;;;5.20;3.63;;;4.60;65.90;;;;;;6251670;22;20303;-88
2021/10/26 19:49:17;;;;;;;7.95;3.70;;;4.60;66.10;;;;;;6251495;22;20003;-88
2021/10/26 19:51:44;;;;;;;5.78;3.83;;;4.60;66.20;;;;;;6252174;22;20000;-89
2021/10/26 19:54:12;;;;;;;3.50;2.40;;;4.50;66.30;;;;;;6251559;22;20006;-89
2021/10/26 19:56:41;;;;;;;5.80;3.05;;;4.50;66.40;;;;;;6278555;22;20070;-88
2021/10/26 19:59:10;;;;;;;8.23;3.42;;;4.50;66.60;;;;;;6251976;22;20000;-89
2021/10/26 20:01:36;;;;;;;5.55;2.80;;;4.50;66.70;;;;;;6252339;22;20284;-89
2021/10/26 20:04:04;;;;;;;5.72;2.58;;;4.50;66.70;;;;;;6251161;22;19998;-89
2021/10/26 20:06:30;;;;;;;4.20;3.33;;;4.50;66.80;;;;;;6251178;22;19999;-89
2021/10/26 20:09:01;;;;;;;5.93;2.88;;;4.40;66.90;;;;;;6251540;22;20078;-88
2021/10/26 20:11:29;;;;;;;4.25;2.38;;;4.40;66.90;;;;;;6251378;22;19999;-88
2021/10/26 20:13:57;;;;;;;4.18;2.85;;;4.40;67.00;;;;;;6250997;22;20083;-89
2021/10/26 20:16:25;;;;;;;5.10;3.00;;;4.40;67.00;;;;;;6251588;22;20023;-88
2021/10/26 20:18:51;;;;;;;4.05;1.98;;;4.40;67.00;;;;;;6251265;22;20307;-89
2021/10/26 20:21:23;;;;;;;5.72;3.15;;;4.40;67.10;;;;;;6251071;22;20010;-89
2021/10/26 20:26:31;;;;;;;4.32;2.40;;;4.40;67.10;;;;;;6277895;22;20306;-89
2021/10/26 20:28:57;;;;;;;6.53;3.25;;;4.50;67.20;;;;;;6252248;22;19992;-89
2021/10/26 20:31:22;;;;;;;6.03;3.40;;;4.40;67.20;;;;;;6251072;22;20010;-89
2021/10/26 20:33:48;;;;;;;9.55;5.63;;;4.40;67.30;;;;;;6250998;22;20438;-89
2021/10/26 20:36:14;;;;;;;12.57;5.97;;;4.40;67.20;;;;;;6251050;22;20003;-89
2021/10/26 20:38:40;;;;;;;6.90;4.85;;;4.50;67.30;;;;;;6251840;22;19999;-89
2021/10/26 20:41:06;;;;;;;9.73;5.05;;;4.50;67.90;;;;;;6251034;22;20011;-89
2021/10/26 20:43:33;;;;;;;10.13;5.93;;;4.50;67.30;;;;;;6251086;22;20059;-89
2021/10/26 20:45:59;;;;;;;7.53;5.05;;;4.40;67.40;;;;;;6260528;22;20023;-89
2021/10/26 20:48:25;;;;;;;10.38;5.78;;;4.50;67.50;;;;;;6266842;22;19999;-89
2021/10/26 20:50:54;;;;;;;9.30;4.68;;;4.40;67.40;;;;;;6261837;22;20003;-89
2021/10/26 20:53:27;;;;;;;5.95;3.40;;;4.40;67.40;;;;;;6253664;22;20411;-89
2021/10/26 20:55:55;;;;;;;7.43;4.72;;;4.40;67.50;;;;;;6278547;22;19995;-89
2021/10/26 20:58:24;;;;;;;3.80;2.90;;;4.40;67.50;;;;;;6278249;22;20028;-89
2021/10/26 21:00:50;;;;;;;7.68;3.83;;;4.40;67.60;;;;;;6250668;22;20007;-89
2021/10/26 21:03:17;;;;;;;5.35;3.20;;;4.40;67.70;;;;;;6250927;22;19999;-89
2021/10/26 21:05:43;;;;;;;5.95;2.60;;;4.40;67.80;;;;;;6265863;22;19996;-88
2021/10/26 21:08:09;;;;;;;4.60;2.97;;;4.30;67.80;;;;;;6275594;22;19996;-88
2021/10/26 21:10:34;;;;;;;7.03;3.67;;;4.30;67.80;;;;;;6275820;22;20004;-89
2021/10/26 21:13:00;;;;;;;7.22;2.70;;;4.30;67.90;;;;;;6269428;22;20062;-89
2021/10/26 21:15:27;;;;;;;5.90;3.38;;;4.30;68.00;;;;;;6251250;22;20004;-88
2021/10/26 21:17:54;;;;;;;5.97;2.67;;;4.30;68.00;;;;;;6250915;22;19996;-89
2021/10/26 21:20:22;;;;;;;7.13;3.30;;;4.20;68.20;;;;;;6251730;22;20007;-88
2021/10/26 21:22:48;;;;;;;5.65;3.20;;;4.20;68.20;;;;;;6277460;22;20026;-89
2021/10/26 21:25:17;;;;;;;7.80;2.92;;;4.20;68.30;;;;;;6251574;22;19996;-89
2021/10/26 21:27:42;;;;;;;3.63;2.35;;;4.20;68.30;;;;;;6251467;22;20000;-89
2021/10/26 21:30:09;;;;;;;5.57;2.95;;;4.20;68.50;;;;;;6251046;22;20480;-89
2021/10/26 21:32:39;;;;;;;7.22;3.28;;;4.10;68.50;;;;;;6250882;22;20023;-89
2021/10/26 21:35:09;;;;;;;4.95;2.63;;;4.10;68.60;;;;;;6251316;22;19991;-89
2021/10/26 21:37:41;;;;;;;5.03;2.83;;;4.10;68.60;;;;;;6251707;22;19999;-89
2021/10/26 21:40:09;;;;;;;4.32;2.33;;;4.10;68.70;;;;;;6253791;22;20004;-89
2021/10/26 21:42:35;;;;;;;7.82;3.10;;;4.00;68.80;;;;;;6252619;22;20079;-89
2021/10/26 21:45:01;;;;;;;6.45;3.13;;;4.00;68.90;;;;;;6252650;22;19996;-89
2021/10/26 21:47:27;;;;;;;6.18;3.13;;;4.00;69.00;;;;;;6252674;22;20033;-88
2021/10/26 21:49:53;;;;;;;8.25;3.38;;;3.90;69.20;;;;;;6253126;22;20408;-89
2021/10/26 21:52:19;;;;;;;7.05;3.63;;;3.90;69.40;;;;;;6252764;22;20000;-89
2021/10/26 21:54:45;;;;;;;5.22;3.35;;;3.90;69.40;;;;;;6253297;22;20291;-89
2021/10/26 21:57:11;;;;;;;6.25;2.72;;;3.90;69.60;;;;;;6252722;22;20423;-89
2021/10/26 21:59:36;;;;;;;4.50;2.90;;;3.90;69.70;;;;;;6252518;22;20002;-89
2021/10/26 22:02:03;;;;;;;5.85;3.08;;;3.90;69.80;;;;;;6253221;22;20086;-89
2021/10/26 22:04:31;;;;;;;5.18;2.58;;;3.90;69.90;;;;;;6252797;22;20419;-89
2021/10/26 22:06:57;;;;;;;6.05;2.92;;;3.80;70.00;;;;;;6279846;22;19999;-89
2021/10/26 22:09:23;;;;;;;5.25;2.97;;;3.80;70.10;;;;;;6252204;22;20000;-89
2021/10/26 22:11:49;;;;;;;6.97;2.80;;;3.80;70.20;;;;;;6253159;22;20295;-88
2021/10/26 22:14:16;;;;;;;9.07;3.25;;;3.80;70.30;;;;;;6253344;22;20066;-89
2021/10/26 22:16:43;;;;;;;6.50;2.70;;;3.80;70.50;;;;;;6253177;22;20074;-89
2021/10/26 22:19:09;;;;;;;5.97;2.60;;;3.80;70.40;;;;;;6253066;22;19995;-88
2021/10/26 22:21:35;;;;;;;3.17;2.30;;;3.80;70.50;;;;;;6252850;22;20053;-89
2021/10/26 22:24:01;;;;;;;7.88;3.22;;;3.80;70.60;;;;;;6252941;22;19996;-89
2021/10/26 22:26:26;;;;;;;4.70;3.22;;;3.80;70.60;;;;;;6279422;22;20342;-89
2021/10/26 22:28:52;;;;;;;4.95;2.47;;;3.80;70.70;;;;;;6252201;22;20047;-89
2021/10/26 22:31:18;;;;;;;4.88;3.05;;;3.70;70.70;;;;;;6253349;22;20335;-89
2021/10/26 22:33:44;;;;;;;4.15;2.30;;;3.70;70.80;;;;;;6252171;22;19999;-88
2021/10/26 22:36:12;;;;;;;3.05;2.53;;;3.70;70.80;;;;;;6252651;22;19991;-89
2021/10/26 22:38:39;;;;;;;2.30;2.10;;;3.70;70.80;;;;;;6252487;22;20419;-89
2021/10/26 22:41:05;;;;;;;3.13;2.55;;;3.70;71.00;;;;;;6253259;22;20008;-89
2021/10/26 22:43:33;;;;;;;6.65;2.92;;;3.60;71.00;;;;;;6252382;22;20079;-89
2021/10/26 22:46:01;;;;;;;6.93;2.97;;;3.60;71.10;;;;;;6252372;22;20003;-89
2021/10/26 22:48:27;;;;;;;3.88;2.90;;;3.60;71.20;;;;;;6252443;22;20003;-89